Time,TemperatureF,DewpointF,PressureIn,WindDirection,WindDirectionDegrees,WindSpeedMPH,WindSpeedGustMPH,Humidity,HourlyPrecipIn,Conditions,Clouds,dailyrainin,SoftwareType,DateUTC
2013-11-29 00:01:00,32.7,13.2,28.29,NNE,22,0.0,0.0,44,0.00,,---,0.00,VWS V14.01,2013-11-29 05:01:00,
2013-11-29 00:02:00,32.7,13.2,28.29,WSW,248,0.0,0.0,44,0.00,,---,0.00,VWS V14.01,2013-11-29 05:02:00,
2013-11-29 00:03:00,32.7,13.2,28.29,NNW,338,0.0,1.3,44,0.00,,---,0.00,VWS V14.01,2013-11-29 05:03:00,
2013-11-29 00:09:00,32.7,13.2,28.26,NNW,338,0.0,0.0,44,0.00,,---,0.00,VWS V14.01,2013-11-29 05:09:00,
2013-11-29 00:14:00,32.7,13.2,28.26,West,270,0.0,0.0,44,0.00,,---,0.00,VWS V14.01,2013-11-29 05:14:00,
2013-11-29 00:19:00,32.5,13.1,28.26,NNW,338,0.0,0.0,44,0.00,,---,0.00,VWS V14.01,2013-11-29 05:19:00,
2013-11-29 00:24:00,32.5,13.1,28.26,SW,225,0.0,0.0,44,0.00,,---,0.00,VWS V14.01,2013-11-29 05:24:00,
2013-11-29 00:29:00,32.5,13.1,28.26,East,90,0.0,0.0,44,0.00,,---,0.00,VWS V14.01,2013-11-29 05:29:00,
2013-11-29 00:34:00,32.4,12.9,28.26,East,90,0.0,0.0,44,0.00,,---,0.00,VWS V14.01,2013-11-29 05:34:00,
2013-11-29 00:39:00,32.5,13.1,28.26,ENE,68,0.0,0.0,44,0.00,,---,0.00,VWS V14.01,2013-11-29 05:39:00,
2013-11-29 00:44:00,32.2,12.7,28.26,WSW,248,0.0,0.0,44,0.00,,---,0.00,VWS V14.01,2013-11-29 05:44:00,
2013-11-29 00:49:00,32.2,12.7,28.26,WSW,248,0.0,0.0,44,0.00,,---,0.00,VWS V14.01,2013-11-29 05:49:00,
2013-11-29 00:54:00,32.0,12.6,28.26,WSW,248,0.0,0.0,44,0.00,,---,0.00,VWS V14.01,2013-11-29 05:54:00,
2013-11-29 00:59:00,32.0,12.6,28.26,WSW,248,0.0,0.0,44,0.00,,---,0.00,VWS V14.01,2013-11-29 05:59:00,
2013-11-29 01:04:00,32.0,12.6,28.29,WSW,248,0.0,0.0,44,0.00,,---,0.00,VWS V14.01,2013-11-29 06:04:00,
2013-11-29 01:09:00,31.8,12.4,28.29,WSW,248,0.0,0.0,44,0.00,,---,0.00,VWS V14.01,2013-11-29 06:09:00,
2013-11-29 01:14:00,32.0,12.6,28.29,West,270,0.0,0.0,44,0.00,,---,0.00,VWS V14.01,2013-11-29 06:14:00,
2013-11-29 01:19:00,32.0,12.6,28.29,West,270,0.0,0.0,44,0.00,,---,0.00,VWS V14.01,2013-11-29 06:19:00,
2013-11-29 01:24:00,31.8,12.4,28.29,West,270,0.0,0.0,44,0.00,,---,0.00,VWS V14.01,2013-11-29 06:24:00,
2013-11-29 01:29:00,31.3,11.9,28.29,West,270,0.0,0.0,44,0.00,,---,0.00,VWS V14.01,2013-11-29 06:29:00,
2013-11-29 01:34:00,31.1,11.8,28.29,West,270,0.0,0.0,44,0.00,,---,0.00,VWS V14.01,2013-11-29 06:34:00,
2013-11-29 01:39:00,30.7,11.4,28.29,West,270,0.0,0.0,44,0.00,,---,0.00,VWS V14.01,2013-11-29 06:39:00,
2013-11-29 01:44:00,30.6,11.2,28.29,West,270,0.0,0.0,44,0.00,,---,0.00,VWS V14.01,2013-11-29 06:44:00,
2013-11-29 01:50:00,30.4,11.1,28.29,West,270,1.3,1.3,44,0.00,,---,0.00,VWS V14.01,2013-11-29 06:50:00,
2013-11-29 01:55:00,30.6,11.2,28.29,West,270,0.0,0.0,44,0.00,,---,0.00,VWS V14.01,2013-11-29 06:55:00,
2013-11-29 02:00:00,30.4,11.6,28.29,West,270,0.0,0.0,45,0.00,,---,0.00,VWS V14.01,2013-11-29 07:00:00,
2013-11-29 02:05:00,30.2,11.4,28.29,West,270,0.0,0.0,45,0.00,,---,0.00,VWS V14.01,2013-11-29 07:05:00,
2013-11-29 02:10:00,30.2,11.4,28.29,West,270,0.0,0.0,45,0.00,,---,0.00,VWS V14.01,2013-11-29 07:10:00,
2013-11-29 02:15:00,30.2,11.4,28.29,West,270,0.0,0.0,45,0.00,,---,0.00,VWS V14.01,2013-11-29 07:15:00,
2013-11-29 02:20:00,30.2,11.4,28.29,West,270,0.0,0.0,45,0.00,,---,0.00,VWS V14.01,2013-11-29 07:20:00,
2013-11-29 02:25:00,30.4,11.1,28.29,West,270,0.0,0.0,44,0.00,,---,0.00,VWS V14.01,2013-11-29 07:25:00,
2013-11-29 02:30:00,30.7,11.4,28.29,West,270,0.0,0.0,44,0.00,,---,0.00,VWS V14.01,2013-11-29 07:30:00,
2013-11-29 02:35:00,30.9,11.6,28.29,West,270,0.0,0.0,44,0.00,,---,0.00,VWS V14.01,2013-11-29 07:35:00,
2013-11-29 02:40:00,30.9,11.6,28.29,West,270,0.0,0.0,44,0.00,,---,0.00,VWS V14.01,2013-11-29 07:40:00,
2013-11-29 02:45:00,31.1,11.8,28.29,West,270,0.0,0.0,44,0.00,,---,0.00,VWS V14.01,2013-11-29 07:45:00,
2013-11-29 02:50:00,31.1,11.8,28.29,West,270,0.0,0.0,44,0.00,,---,0.00,VWS V14.01,2013-11-29 07:50:00,
2013-11-29 02:55:00,31.1,11.8,28.29,West,270,0.0,0.0,44,0.00,,---,0.00,VWS V14.01,2013-11-29 07:55:00,
2013-11-29 03:00:00,31.1,11.8,28.29,West,270,0.0,0.0,44,0.00,,---,0.00,VWS V14.01,2013-11-29 08:00:00,
2013-11-29 03:05:00,31.1,11.8,28.29,West,270,0.0,0.0,44,0.00,,---,0.00,VWS V14.01,2013-11-29 08:05:00,
2013-11-29 03:10:00,31.3,11.4,28.29,West,270,0.0,0.0,43,0.00,,---,0.00,VWS V14.01,2013-11-29 08:10:00,
2013-11-29 03:15:00,31.3,11.4,28.29,West,270,0.0,0.0,43,0.00,,---,0.00,VWS V14.01,2013-11-29 08:15:00,
2013-11-29 03:20:00,31.5,11.6,28.29,West,270,0.0,0.0,43,0.00,,---,0.00,VWS V14.01,2013-11-29 08:20:00,
2013-11-29 03:25:00,31.5,11.6,28.29,West,270,0.0,0.0,43,0.00,,---,0.00,VWS V14.01,2013-11-29 08:25:00,
2013-11-29 03:30:00,31.5,11.6,28.29,West,270,0.0,0.0,43,0.00,,---,0.00,VWS V14.01,2013-11-29 08:30:00,
2013-11-29 03:35:00,31.3,11.4,28.29,West,270,0.0,0.0,43,0.00,,---,0.00,VWS V14.01,2013-11-29 08:35:00,
2013-11-29 03:40:00,31.5,11.6,28.29,West,270,0.0,0.0,43,0.00,,---,0.00,VWS V14.01,2013-11-29 08:40:00,
2013-11-29 03:45:00,31.5,11.6,28.29,West,270,0.0,0.0,43,0.00,,---,0.00,VWS V14.01,2013-11-29 08:45:00,
2013-11-29 03:50:00,31.5,11.6,28.29,West,270,0.0,0.0,43,0.00,,---,0.00,VWS V14.01,2013-11-29 08:50:00,
2013-11-29 03:53:00,31.5,11.6,28.29,ENE,68,0.0,0.0,43,0.00,,---,0.00,VWS V14.01,2013-11-29 08:53:00,
2013-11-29 03:55:00,31.5,11.6,28.29,ENE,68,0.0,0.0,43,0.00,,---,0.00,VWS V14.01,2013-11-29 08:55:00,
2013-11-29 04:00:00,31.5,11.6,28.29,ENE,68,0.0,0.0,43,0.00,,---,0.00,VWS V14.01,2013-11-29 09:00:00,
2013-11-29 05:00:00,31.5,11.6,28.29,ENE,68,0.0,0.0,43,0.00,,---,0.00,VWS V14.01,2013-11-29 10:00:00,